sensor_id;sensor_type;location;lat;lon;timestamp;P1;durP1;ratioP1;P2;durP2;ratioP2
76723;SDS011;65650;53.126;17.950;2022-12-20T00:00:10;30.50;;;11.20;;
76723;SDS011;65650;53.126;17.950;2022-12-20T00:02:57;30.60;;;12.60;;
76723;SDS011;65650;53.126;17.950;2022-12-20T00:05:24;26.30;;;10.60;;
76723;SDS011;65650;53.126;17.950;2022-12-20T00:07:50;31.70;;;12.30;;
76723;SDS011;65650;53.126;17.950;2022-12-20T00:10:16;31.30;;;13.70;;
76723;SDS011;65650;53.126;17.950;2022-12-20T00:12:43;28.70;;;11.00;;
76723;SDS011;65650;53.126;17.950;2022-12-20T00:15:10;29.80;;;11.40;;
76723;SDS011;65650;53.126;17.950;2022-12-20T00:17:36;23.00;;;9.20;;
76723;SDS011;65650;53.126;17.950;2022-12-20T00:20:03;35.50;;;14.50;;
76723;SDS011;65650;53.126;17.950;2022-12-20T00:22:29;31.60;;;12.20;;
76723;SDS011;65650;53.126;17.950;2022-12-20T00:24:56;35.20;;;13.90;;
76723;SDS011;65650;53.126;17.950;2022-12-20T00:27:22;30.10;;;11.90;;
76723;SDS011;65650;53.126;17.950;2022-12-20T00:29:49;27.40;;;10.90;;
76723;SDS011;65650;53.126;17.950;2022-12-20T00:32:15;32.40;;;12.30;;
76723;SDS011;65650;53.126;17.950;2022-12-20T00:34:42;21.70;;;9.80;;
76723;SDS011;65650;53.126;17.950;2022-12-20T00:37:08;30.40;;;11.50;;
76723;SDS011;65650;53.126;17.950;2022-12-20T00:39:35;33.30;;;13.90;;
76723;SDS011;65650;53.126;17.950;2022-12-20T00:42:01;32.30;;;12.10;;
76723;SDS011;65650;53.126;17.950;2022-12-20T00:44:28;35.80;;;14.50;;
76723;SDS011;65650;53.126;17.950;2022-12-20T00:46:54;21.70;;;8.70;;
76723;SDS011;65650;53.126;17.950;2022-12-20T00:49:21;19.70;;;8.00;;
76723;SDS011;65650;53.126;17.950;2022-12-20T00:51:47;33.30;;;12.30;;
76723;SDS011;65650;53.126;17.950;2022-12-20T00:54:14;29.60;;;11.80;;
76723;SDS011;65650;53.126;17.950;2022-12-20T00:56:40;25.40;;;10.40;;
76723;SDS011;65650;53.126;17.950;2022-12-20T00:59:07;37.40;;;14.30;;
76723;SDS011;65650;53.126;17.950;2022-12-20T01:01:33;17.80;;;7.20;;
76723;SDS011;65650;53.126;17.950;2022-12-20T01:04:00;29.10;;;11.50;;
76723;SDS011;65650;53.126;17.950;2022-12-20T01:06:27;29.40;;;12.00;;
76723;SDS011;65650;53.126;17.950;2022-12-20T01:08:54;29.60;;;12.40;;
76723;SDS011;65650;53.126;17.950;2022-12-20T01:11:22;27.90;;;11.30;;
76723;SDS011;65650;53.126;17.950;2022-12-20T01:13:50;30.00;;;10.70;;
76723;SDS011;65650;53.126;17.950;2022-12-20T01:16:31;25.40;;;10.00;;
76723;SDS011;65650;53.126;17.950;2022-12-20T01:18:58;34.90;;;13.70;;
76723;SDS011;65650;53.126;17.950;2022-12-20T01:21:25;29.40;;;11.20;;
76723;SDS011;65650;53.126;17.950;2022-12-20T01:23:52;30.00;;;13.20;;
76723;SDS011;65650;53.126;17.950;2022-12-20T01:26:20;27.20;;;9.90;;
76723;SDS011;65650;53.126;17.950;2022-12-20T01:28:47;24.80;;;9.60;;
76723;SDS011;65650;53.126;17.950;2022-12-20T01:31:15;24.10;;;8.80;;
76723;SDS011;65650;53.126;17.950;2022-12-20T01:33:43;30.20;;;11.20;;
76723;SDS011;65650;53.126;17.950;2022-12-20T01:36:10;25.90;;;10.70;;
76723;SDS011;65650;53.126;17.950;2022-12-20T01:38:37;28.10;;;10.50;;
76723;SDS011;65650;53.126;17.950;2022-12-20T01:41:04;21.00;;;9.30;;
76723;SDS011;65650;53.126;17.950;2022-12-20T01:46:12;26.30;;;10.90;;
76723;SDS011;65650;53.126;17.950;2022-12-20T01:48:39;28.00;;;10.60;;
76723;SDS011;65650;53.126;17.950;2022-12-20T01:51:06;30.60;;;11.70;;
76723;SDS011;65650;53.126;17.950;2022-12-20T01:53:32;30.20;;;11.90;;
76723;SDS011;65650;53.126;17.950;2022-12-20T01:55:59;23.80;;;10.40;;
76723;SDS011;65650;53.126;17.950;2022-12-20T01:58:29;31.30;;;11.60;;
76723;SDS011;65650;53.126;17.950;2022-12-20T02:00:55;27.30;;;10.60;;
76723;SDS011;65650;53.126;17.950;2022-12-20T02:03:22;19.80;;;8.10;;
76723;SDS011;65650;53.126;17.950;2022-12-20T02:05:48;18.60;;;7.00;;
76723;SDS011;65650;53.126;17.950;2022-12-20T02:08:15;30.90;;;13.50;;
76723;SDS011;65650;53.126;17.950;2022-12-20T02:13:11;21.10;;;8.60;;
76723;SDS011;65650;53.126;17.950;2022-12-20T02:15:52;23.30;;;7.80;;
76723;SDS011;65650;53.126;17.950;2022-12-20T02:18:43;31.50;;;13.60;;
76723;SDS011;65650;53.126;17.950;2022-12-20T02:28:45;25.00;;;9.60;;
76723;SDS011;65650;53.126;17.950;2022-12-20T02:31:18;25.60;;;11.40;;
76723;SDS011;65650;53.126;17.950;2022-12-20T02:33:47;31.90;;;12.30;;
76723;SDS011;65650;53.126;17.950;2022-12-20T02:36:17;26.80;;;9.80;;
76723;SDS011;65650;53.126;17.950;2022-12-20T02:38:44;28.10;;;10.40;;
76723;SDS011;65650;53.126;17.950;2022-12-20T02:41:18;30.70;;;12.60;;
76723;SDS011;65650;53.126;17.950;2022-12-20T02:43:48;21.00;;;8.70;;
76723;SDS011;65650;53.126;17.950;2022-12-20T02:46:33;21.70;;;8.50;;
76723;SDS011;65650;53.126;17.950;2022-12-20T02:49:03;28.20;;;11.10;;
76723;SDS011;65650;53.126;17.950;2022-12-20T02:51:30;26.00;;;9.60;;
76723;SDS011;65650;53.126;17.950;2022-12-20T02:53:58;21.00;;;7.70;;
76723;SDS011;65650;53.126;17.950;2022-12-20T02:56:40;27.90;;;11.80;;
76723;SDS011;65650;53.126;17.950;2022-12-20T02:59:11;31.30;;;13.40;;
76723;SDS011;65650;53.126;17.950;2022-12-20T03:01:52;25.70;;;9.40;;
76723;SDS011;65650;53.126;17.950;2022-12-20T03:04:20;22.80;;;7.40;;
76723;SDS011;65650;53.126;17.950;2022-12-20T03:06:54;30.90;;;11.80;;
76723;SDS011;65650;53.126;17.950;2022-12-20T03:09:21;23.60;;;9.60;;
76723;SDS011;65650;53.126;17.950;2022-12-20T03:11:48;29.30;;;11.90;;
76723;SDS011;65650;53.126;17.950;2022-12-20T03:14:15;26.20;;;11.20;;
76723;SDS011;65650;53.126;17.950;2022-12-20T03:16:42;16.70;;;6.20;;
76723;SDS011;65650;53.126;17.950;2022-12-20T03:19:09;26.60;;;9.30;;
76723;SDS011;65650;53.126;17.950;2022-12-20T03:21:36;20.40;;;7.70;;
76723;SDS011;65650;53.126;17.950;2022-12-20T03:24:03;26.40;;;11.00;;
76723;SDS011;65650;53.126;17.950;2022-12-20T03:26:30;26.40;;;10.00;;
76723;SDS011;65650;53.126;17.950;2022-12-20T03:28:58;26.10;;;9.80;;
76723;SDS011;65650;53.126;17.950;2022-12-20T03:31:26;29.70;;;11.80;;
76723;SDS011;65650;53.126;17.950;2022-12-20T03:33:54;32.70;;;13.30;;
76723;SDS011;65650;53.126;17.950;2022-12-20T03:36:20;31.40;;;12.70;;
76723;SDS011;65650;53.126;17.950;2022-12-20T03:38:51;29.10;;;12.10;;
76723;SDS011;65650;53.126;17.950;2022-12-20T03:41:18;22.50;;;9.60;;
76723;SDS011;65650;53.126;17.950;2022-12-20T03:43:44;26.60;;;10.60;;
76723;SDS011;65650;53.126;17.950;2022-12-20T03:46:11;28.20;;;10.90;;
76723;SDS011;65650;53.126;17.950;2022-12-20T03:48:37;23.30;;;9.80;;
76723;SDS011;65650;53.126;17.950;2022-12-20T03:51:04;25.30;;;9.90;;
76723;SDS011;65650;53.126;17.950;2022-12-20T03:53:31;22.10;;;9.90;;
76723;SDS011;65650;53.126;17.950;2022-12-20T03:55:58;26.00;;;10.50;;
76723;SDS011;65650;53.126;17.950;2022-12-20T03:58:24;28.50;;;12.10;;
76723;SDS011;65650;53.126;17.950;2022-12-20T04:00:51;32.40;;;12.70;;
76723;SDS011;65650;53.126;17.950;2022-12-20T04:03:38;30.10;;;12.00;;
76723;SDS011;65650;53.126;17.950;2022-12-20T04:06:05;29.00;;;11.90;;
76723;SDS011;65650;53.126;17.950;2022-12-20T04:08:31;30.40;;;10.50;;
76723;SDS011;65650;53.126;17.950;2022-12-20T04:10:58;31.20;;;12.40;;
76723;SDS011;65650;53.126;17.950;2022-12-20T04:13:53;26.20;;;9.40;;
76723;SDS011;65650;53.126;17.950;2022-12-20T04:16:21;24.80;;;9.30;;
76723;SDS011;65650;53.126;17.950;2022-12-20T04:18:48;20.60;;;8.80;;
76723;SDS011;65650;53.126;17.950;2022-12-20T04:21:14;21.00;;;7.80;;
76723;SDS011;65650;53.126;17.950;2022-12-20T04:23:44;20.50;;;8.20;;
76723;SDS011;65650;53.126;17.950;2022-12-20T04:26:11;25.30;;;10.60;;
76723;SDS011;65650;53.126;17.950;2022-12-20T04:28:38;23.40;;;9.30;;
76723;SDS011;65650;53.126;17.950;2022-12-20T04:31:05;32.80;;;11.80;;
76723;SDS011;65650;53.126;17.950;2022-12-20T04:33:34;23.80;;;9.90;;
76723;SDS011;65650;53.126;17.950;2022-12-20T04:36:00;26.10;;;11.20;;
76723;SDS011;65650;53.126;17.950;2022-12-20T04:38:28;21.00;;;7.20;;
76723;SDS011;65650;53.126;17.950;2022-12-20T04:40:55;26.80;;;10.40;;
76723;SDS011;65650;53.126;17.950;2022-12-20T04:43:22;24.00;;;10.00;;
76723;SDS011;65650;53.126;17.950;2022-12-20T04:45:51;17.70;;;7.30;;
76723;SDS011;65650;53.126;17.950;2022-12-20T04:48:19;27.10;;;11.20;;
76723;SDS011;65650;53.126;17.950;2022-12-20T04:50:48;31.10;;;11.00;;
76723;SDS011;65650;53.126;17.950;2022-12-20T04:53:15;25.70;;;10.40;;
76723;SDS011;65650;53.126;17.950;2022-12-20T04:56:00;30.00;;;11.30;;
76723;SDS011;65650;53.126;17.950;2022-12-20T04:58:27;27.90;;;12.00;;
76723;SDS011;65650;53.126;17.950;2022-12-20T05:00:54;16.00;;;6.00;;
76723;SDS011;65650;53.126;17.950;2022-12-20T05:03:25;25.30;;;10.90;;
76723;SDS011;65650;53.126;17.950;2022-12-20T05:05:52;26.30;;;9.40;;
76723;SDS011;65650;53.126;17.950;2022-12-20T05:08:19;26.00;;;8.90;;
76723;SDS011;65650;53.126;17.950;2022-12-20T05:10:46;26.70;;;10.60;;
76723;SDS011;65650;53.126;17.950;2022-12-20T05:13:14;32.60;;;11.40;;
76723;SDS011;65650;53.126;17.950;2022-12-20T05:15:42;30.20;;;11.80;;
76723;SDS011;65650;53.126;17.950;2022-12-20T05:18:09;28.70;;;11.70;;
76723;SDS011;65650;53.126;17.950;2022-12-20T05:20:44;28.00;;;11.30;;
76723;SDS011;65650;53.126;17.950;2022-12-20T05:23:11;27.10;;;11.00;;
76723;SDS011;65650;53.126;17.950;2022-12-20T05:26:07;24.10;;;7.70;;
76723;SDS011;65650;53.126;17.950;2022-12-20T05:28:42;25.00;;;9.40;;
76723;SDS011;65650;53.126;17.950;2022-12-20T05:31:09;25.10;;;11.00;;
76723;SDS011;65650;53.126;17.950;2022-12-20T05:33:37;29.60;;;12.50;;
76723;SDS011;65650;53.126;17.950;2022-12-20T05:36:03;28.30;;;11.80;;
76723;SDS011;65650;53.126;17.950;2022-12-20T05:38:30;16.70;;;6.50;;
76723;SDS011;65650;53.126;17.950;2022-12-20T05:40:56;29.00;;;12.20;;
76723;SDS011;65650;53.126;17.950;2022-12-20T05:43:24;22.20;;;8.60;;
76723;SDS011;65650;53.126;17.950;2022-12-20T05:45:51;25.90;;;9.90;;
76723;SDS011;65650;53.126;17.950;2022-12-20T05:48:20;27.00;;;10.30;;
76723;SDS011;65650;53.126;17.950;2022-12-20T05:50:47;31.70;;;12.60;;
76723;SDS011;65650;53.126;17.950;2022-12-20T05:53:21;26.70;;;10.40;;
76723;SDS011;65650;53.126;17.950;2022-12-20T05:55:50;13.90;;;5.90;;
76723;SDS011;65650;53.126;17.950;2022-12-20T05:58:17;31.00;;;10.50;;
76723;SDS011;65650;53.126;17.950;2022-12-20T06:00:50;18.20;;;7.70;;
76723;SDS011;65650;53.126;17.950;2022-12-20T06:03:18;26.60;;;10.60;;
76723;SDS011;65650;53.126;17.950;2022-12-20T06:05:45;27.30;;;10.70;;
76723;SDS011;65650;53.126;17.950;2022-12-20T06:08:15;27.50;;;11.90;;
76723;SDS011;65650;53.126;17.950;2022-12-20T06:10:42;27.30;;;10.70;;
76723;SDS011;65650;53.126;17.950;2022-12-20T06:13:09;20.30;;;8.50;;
76723;SDS011;65650;53.126;17.950;2022-12-20T06:15:37;25.20;;;10.30;;
76723;SDS011;65650;53.126;17.950;2022-12-20T06:18:05;28.40;;;12.10;;
76723;SDS011;65650;53.126;17.950;2022-12-20T06:20:32;23.70;;;9.90;;
76723;SDS011;65650;53.126;17.950;2022-12-20T06:23:00;27.10;;;10.20;;
76723;SDS011;65650;53.126;17.950;2022-12-20T06:25:32;23.10;;;10.70;;
76723;SDS011;65650;53.126;17.950;2022-12-20T06:27:58;24.20;;;10.20;;
76723;SDS011;65650;53.126;17.950;2022-12-20T06:30:25;28.10;;;11.10;;
76723;SDS011;65650;53.126;17.950;2022-12-20T06:33:04;24.80;;;10.50;;
76723;SDS011;65650;53.126;17.950;2022-12-20T06:35:31;24.80;;;9.10;;
76723;SDS011;65650;53.126;17.950;2022-12-20T06:37:58;23.00;;;10.00;;
76723;SDS011;65650;53.126;17.950;2022-12-20T06:40:26;32.00;;;13.00;;
76723;SDS011;65650;53.126;17.950;2022-12-20T06:42:52;24.40;;;10.30;;
76723;SDS011;65650;53.126;17.950;2022-12-20T06:45:22;30.00;;;12.90;;
76723;SDS011;65650;53.126;17.950;2022-12-20T06:47:48;24.20;;;9.30;;
76723;SDS011;65650;53.126;17.950;2022-12-20T06:50:15;25.90;;;10.50;;
76723;SDS011;65650;53.126;17.950;2022-12-20T06:52:41;28.40;;;11.70;;
76723;SDS011;65650;53.126;17.950;2022-12-20T06:55:08;27.40;;;11.20;;
76723;SDS011;65650;53.126;17.950;2022-12-20T06:57:37;28.50;;;10.60;;
76723;SDS011;65650;53.126;17.950;2022-12-20T07:00:04;25.10;;;9.90;;
76723;SDS011;65650;53.126;17.950;2022-12-20T07:02:31;18.40;;;7.50;;
76723;SDS011;65650;53.126;17.950;2022-12-20T07:04:57;30.00;;;11.90;;
76723;SDS011;65650;53.126;17.950;2022-12-20T07:07:24;24.70;;;10.60;;
76723;SDS011;65650;53.126;17.950;2022-12-20T07:09:50;31.10;;;11.80;;
76723;SDS011;65650;53.126;17.950;2022-12-20T07:12:17;28.80;;;11.10;;
76723;SDS011;65650;53.126;17.950;2022-12-20T07:14:43;19.40;;;7.00;;
76723;SDS011;65650;53.126;17.950;2022-12-20T07:17:10;23.60;;;9.40;;
76723;SDS011;65650;53.126;17.950;2022-12-20T07:19:36;26.20;;;9.70;;
76723;SDS011;65650;53.126;17.950;2022-12-20T07:22:03;19.30;;;7.90;;
76723;SDS011;65650;53.126;17.950;2022-12-20T07:24:30;24.80;;;10.90;;
76723;SDS011;65650;53.126;17.950;2022-12-20T07:26:57;30.10;;;12.60;;
76723;SDS011;65650;53.126;17.950;2022-12-20T07:29:23;33.20;;;13.10;;
76723;SDS011;65650;53.126;17.950;2022-12-20T07:31:51;26.10;;;10.90;;
76723;SDS011;65650;53.126;17.950;2022-12-20T07:34:17;29.10;;;11.70;;
76723;SDS011;65650;53.126;17.950;2022-12-20T07:36:44;28.30;;;12.70;;
76723;SDS011;65650;53.126;17.950;2022-12-20T07:39:10;24.40;;;10.50;;
76723;SDS011;65650;53.126;17.950;2022-12-20T07:41:37;25.10;;;11.40;;
76723;SDS011;65650;53.126;17.950;2022-12-20T07:44:03;17.50;;;7.60;;
76723;SDS011;65650;53.126;17.950;2022-12-20T07:46:30;31.90;;;13.90;;
76723;SDS011;65650;53.126;17.950;2022-12-20T07:48:56;23.70;;;10.40;;
76723;SDS011;65650;53.126;17.950;2022-12-20T07:53:51;28.60;;;12.10;;
76723;SDS011;65650;53.126;17.950;2022-12-20T07:56:18;26.20;;;12.10;;
76723;SDS011;65650;53.126;17.950;2022-12-20T07:58:46;17.70;;;7.80;;
76723;SDS011;65650;53.126;17.950;2022-12-20T08:01:13;25.60;;;11.60;;
76723;SDS011;65650;53.126;17.950;2022-12-20T08:03:44;30.20;;;12.30;;
76723;SDS011;65650;53.126;17.950;2022-12-20T08:06:12;24.00;;;10.70;;
76723;SDS011;65650;53.126;17.950;2022-12-20T08:08:39;26.50;;;11.10;;
76723;SDS011;65650;53.126;17.950;2022-12-20T08:11:08;25.70;;;10.70;;
76723;SDS011;65650;53.126;17.950;2022-12-20T08:13:36;26.60;;;10.90;;
76723;SDS011;65650;53.126;17.950;2022-12-20T08:16:02;22.20;;;9.90;;
76723;SDS011;65650;53.126;17.950;2022-12-20T08:18:29;27.60;;;12.70;;
76723;SDS011;65650;53.126;17.950;2022-12-20T08:20:55;18.60;;;7.70;;
76723;SDS011;65650;53.126;17.950;2022-12-20T08:23:22;27.10;;;10.90;;
76723;SDS011;65650;53.126;17.950;2022-12-20T08:25:48;31.90;;;14.60;;
76723;SDS011;65650;53.126;17.950;2022-12-20T08:28:15;30.50;;;12.90;;
76723;SDS011;65650;53.126;17.950;2022-12-20T08:30:41;26.10;;;10.70;;
76723;SDS011;65650;53.126;17.950;2022-12-20T08:33:08;26.20;;;11.00;;
76723;SDS011;65650;53.126;17.950;2022-12-20T08:35:35;27.40;;;12.10;;
76723;SDS011;65650;53.126;17.950;2022-12-20T08:38:01;24.50;;;9.30;;
76723;SDS011;65650;53.126;17.950;2022-12-20T08:40:28;31.20;;;12.40;;
76723;SDS011;65650;53.126;17.950;2022-12-20T08:42:54;26.00;;;10.10;;
76723;SDS011;65650;53.126;17.950;2022-12-20T08:45:20;25.40;;;10.10;;
76723;SDS011;65650;53.126;17.950;2022-12-20T08:47:47;28.60;;;11.40;;
76723;SDS011;65650;53.126;17.950;2022-12-20T08:50:13;22.40;;;9.60;;
76723;SDS011;65650;53.126;17.950;2022-12-20T08:52:40;26.20;;;11.10;;
76723;SDS011;65650;53.126;17.950;2022-12-20T08:55:06;19.10;;;8.50;;
76723;SDS011;65650;53.126;17.950;2022-12-20T08:57:33;23.00;;;8.90;;
76723;SDS011;65650;53.126;17.950;2022-12-20T09:00:00;40.60;;;15.20;;
76723;SDS011;65650;53.126;17.950;2022-12-20T09:02:27;27.60;;;10.90;;
76723;SDS011;65650;53.126;17.950;2022-12-20T09:04:53;26.10;;;11.40;;
76723;SDS011;65650;53.126;17.950;2022-12-20T09:07:20;25.30;;;7.50;;
76723;SDS011;65650;53.126;17.950;2022-12-20T09:09:46;46.80;;;16.50;;
76723;SDS011;65650;53.126;17.950;2022-12-20T09:12:13;23.80;;;9.80;;
76723;SDS011;65650;53.126;17.950;2022-12-20T09:14:39;25.70;;;9.80;;
76723;SDS011;65650;53.126;17.950;2022-12-20T09:17:06;24.00;;;8.80;;
76723;SDS011;65650;53.126;17.950;2022-12-20T09:19:33;22.50;;;9.80;;
76723;SDS011;65650;53.126;17.950;2022-12-20T09:21:59;20.10;;;9.70;;
76723;SDS011;65650;53.126;17.950;2022-12-20T09:24:26;26.30;;;11.20;;
76723;SDS011;65650;53.126;17.950;2022-12-20T09:26:52;22.90;;;9.90;;
76723;SDS011;65650;53.126;17.950;2022-12-20T09:29:19;26.80;;;11.30;;
76723;SDS011;65650;53.126;17.950;2022-12-20T09:31:45;27.10;;;11.00;;
76723;SDS011;65650;53.126;17.950;2022-12-20T09:34:14;18.40;;;7.30;;
76723;SDS011;65650;53.126;17.950;2022-12-20T09:36:40;26.80;;;10.80;;
76723;SDS011;65650;53.126;17.950;2022-12-20T09:39:07;22.90;;;10.20;;
76723;SDS011;65650;53.126;17.950;2022-12-20T09:41:41;23.50;;;10.40;;
76723;SDS011;65650;53.126;17.950;2022-12-20T09:44:19;20.90;;;8.30;;
76723;SDS011;65650;53.126;17.950;2022-12-20T09:46:50;20.60;;;8.40;;
76723;SDS011;65650;53.126;17.950;2022-12-20T09:49:18;24.20;;;12.00;;
76723;SDS011;65650;53.126;17.950;2022-12-20T09:54:21;36.90;;;14.30;;
76723;SDS011;65650;53.126;17.950;2022-12-20T09:57:08;32.50;;;12.40;;
76723;SDS011;65650;53.126;17.950;2022-12-20T09:59:37;33.60;;;14.20;;
76723;SDS011;65650;53.126;17.950;2022-12-20T10:02:12;32.30;;;12.70;;
76723;SDS011;65650;53.126;17.950;2022-12-20T10:04:40;31.00;;;13.00;;
76723;SDS011;65650;53.126;17.950;2022-12-20T10:12:02;21.70;;;8.90;;
76723;SDS011;65650;53.126;17.950;2022-12-20T10:17:03;28.10;;;11.80;;
76723;SDS011;65650;53.126;17.950;2022-12-20T10:22:11;28.20;;;12.30;;
76723;SDS011;65650;53.126;17.950;2022-12-20T10:24:40;22.60;;;9.70;;
76723;SDS011;65650;53.126;17.950;2022-12-20T10:27:11;26.90;;;11.10;;
76723;SDS011;65650;53.126;17.950;2022-12-20T10:29:38;28.10;;;10.90;;
76723;SDS011;65650;53.126;17.950;2022-12-20T10:32:09;28.20;;;11.90;;
76723;SDS011;65650;53.126;17.950;2022-12-20T10:34:37;25.50;;;9.60;;
76723;SDS011;65650;53.126;17.950;2022-12-20T10:37:11;31.70;;;13.00;;
76723;SDS011;65650;53.126;17.950;2022-12-20T10:39:41;23.10;;;10.50;;
76723;SDS011;65650;53.126;17.950;2022-12-20T10:44:54;29.00;;;12.70;;
76723;SDS011;65650;53.126;17.950;2022-12-20T10:47:23;23.70;;;9.60;;
76723;SDS011;65650;53.126;17.950;2022-12-20T10:49:50;28.30;;;10.60;;
76723;SDS011;65650;53.126;17.950;2022-12-20T10:52:17;28.90;;;12.30;;
76723;SDS011;65650;53.126;17.950;2022-12-20T10:54:44;28.80;;;11.80;;
76723;SDS011;65650;53.126;17.950;2022-12-20T10:57:19;25.40;;;10.90;;
76723;SDS011;65650;53.126;17.950;2022-12-20T11:05:01;31.20;;;12.80;;
76723;SDS011;65650;53.126;17.950;2022-12-20T11:07:30;29.30;;;11.90;;
76723;SDS011;65650;53.126;17.950;2022-12-20T11:09:58;35.50;;;14.90;;
76723;SDS011;65650;53.126;17.950;2022-12-20T11:12:24;29.90;;;12.50;;
76723;SDS011;65650;53.126;17.950;2022-12-20T11:15:06;31.80;;;13.50;;
76723;SDS011;65650;53.126;17.950;2022-12-20T11:35:18;33.90;;;14.20;;
76723;SDS011;65650;53.126;17.950;2022-12-20T11:40:24;69.50;;;24.30;;
76723;SDS011;65650;53.126;17.950;2022-12-20T11:53:26;50.30;;;17.00;;
76723;SDS011;65650;53.126;17.950;2022-12-20T11:55:59;57.50;;;21.60;;
76723;SDS011;65650;53.126;17.950;2022-12-20T11:58:43;52.80;;;21.30;;
76723;SDS011;65650;53.126;17.950;2022-12-20T12:01:12;31.70;;;12.00;;
76723;SDS011;65650;53.126;17.950;2022-12-20T12:03:40;31.40;;;14.00;;
76723;SDS011;65650;53.126;17.950;2022-12-20T12:06:31;28.50;;;11.00;;
76723;SDS011;65650;53.126;17.950;2022-12-20T12:11:26;20.30;;;8.20;;
76723;SDS011;65650;53.126;17.950;2022-12-20T12:13:54;19.20;;;8.00;;
76723;SDS011;65650;53.126;17.950;2022-12-20T12:16:39;28.50;;;12.50;;
76723;SDS011;65650;53.126;17.950;2022-12-20T12:19:09;25.50;;;10.90;;
76723;SDS011;65650;53.126;17.950;2022-12-20T12:24:14;32.50;;;12.00;;
76723;SDS011;65650;53.126;17.950;2022-12-20T12:26:44;26.90;;;11.40;;
76723;SDS011;65650;53.126;17.950;2022-12-20T12:29:13;31.30;;;13.80;;
76723;SDS011;65650;53.126;17.950;2022-12-20T12:31:42;30.30;;;13.00;;
76723;SDS011;65650;53.126;17.950;2022-12-20T12:34:14;34.70;;;13.30;;
76723;SDS011;65650;53.126;17.950;2022-12-20T12:36:47;31.90;;;13.40;;
76723;SDS011;65650;53.126;17.950;2022-12-20T12:39:29;30.70;;;12.70;;
76723;SDS011;65650;53.126;17.950;2022-12-20T12:47:11;33.80;;;14.40;;
76723;SDS011;65650;53.126;17.950;2022-12-20T12:49:38;27.00;;;11.50;;
76723;SDS011;65650;53.126;17.950;2022-12-20T12:52:05;30.40;;;12.10;;
76723;SDS011;65650;53.126;17.950;2022-12-20T12:54:36;30.90;;;12.50;;
76723;SDS011;65650;53.126;17.950;2022-12-20T12:57:09;30.40;;;13.20;;
76723;SDS011;65650;53.126;17.950;2022-12-20T13:09:53;40.20;;;16.50;;
76723;SDS011;65650;53.126;17.950;2022-12-20T13:13:03;38.40;;;15.30;;
76723;SDS011;65650;53.126;17.950;2022-12-20T13:17:51;36.00;;;16.20;;
76723;SDS011;65650;53.126;17.950;2022-12-20T13:25:47;33.80;;;14.10;;
76723;SDS011;65650;53.126;17.950;2022-12-20T13:31:28;29.50;;;12.50;;
76723;SDS011;65650;53.126;17.950;2022-12-20T13:33:37;34.90;;;14.90;;
76723;SDS011;65650;53.126;17.950;2022-12-20T13:38:48;32.10;;;13.90;;
76723;SDS011;65650;53.126;17.950;2022-12-20T13:43:58;31.20;;;13.90;;
76723;SDS011;65650;53.126;17.950;2022-12-20T13:46:29;28.80;;;11.30;;
76723;SDS011;65650;53.126;17.950;2022-12-20T13:49:01;26.10;;;11.90;;
76723;SDS011;65650;53.126;17.950;2022-12-20T13:51:28;36.00;;;13.90;;
76723;SDS011;65650;53.126;17.950;2022-12-20T13:53:56;30.10;;;12.30;;
76723;SDS011;65650;53.126;17.950;2022-12-20T13:58:53;37.70;;;16.20;;
76723;SDS011;65650;53.126;17.950;2022-12-20T14:01:21;38.40;;;15.40;;
76723;SDS011;65650;53.126;17.950;2022-12-20T14:03:48;37.00;;;15.80;;
76723;SDS011;65650;53.126;17.950;2022-12-20T14:06:17;28.60;;;12.10;;
76723;SDS011;65650;53.126;17.950;2022-12-20T14:08:45;34.50;;;15.50;;
76723;SDS011;65650;53.126;17.950;2022-12-20T14:11:19;38.60;;;16.60;;
76723;SDS011;65650;53.126;17.950;2022-12-20T14:13:53;35.50;;;15.70;;
76723;SDS011;65650;53.126;17.950;2022-12-20T14:16:19;30.30;;;11.50;;
76723;SDS011;65650;53.126;17.950;2022-12-20T14:18:47;29.40;;;12.30;;
76723;SDS011;65650;53.126;17.950;2022-12-20T14:21:13;26.60;;;10.80;;
76723;SDS011;65650;53.126;17.950;2022-12-20T14:23:40;27.10;;;11.50;;
76723;SDS011;65650;53.126;17.950;2022-12-20T14:26:12;36.50;;;15.30;;
76723;SDS011;65650;53.126;17.950;2022-12-20T14:28:40;26.90;;;10.80;;
76723;SDS011;65650;53.126;17.950;2022-12-20T14:34:02;31.00;;;13.70;;
76723;SDS011;65650;53.126;17.950;2022-12-20T14:36:29;31.60;;;13.70;;
76723;SDS011;65650;53.126;17.950;2022-12-20T14:38:56;41.00;;;15.90;;
76723;SDS011;65650;53.126;17.950;2022-12-20T14:46:32;20.30;;;7.90;;
76723;SDS011;65650;53.126;17.950;2022-12-20T14:51:34;39.90;;;15.90;;
76723;SDS011;65650;53.126;17.950;2022-12-20T14:54:01;44.50;;;16.90;;
76723;SDS011;65650;53.126;17.950;2022-12-20T14:56:27;82.40;;;26.80;;
76723;SDS011;65650;53.126;17.950;2022-12-20T14:59:01;73.30;;;22.90;;
76723;SDS011;65650;53.126;17.950;2022-12-20T15:01:30;80.80;;;25.40;;
76723;SDS011;65650;53.126;17.950;2022-12-20T15:03:57;87.80;;;23.90;;
76723;SDS011;65650;53.126;17.950;2022-12-20T15:06:38;51.10;;;18.80;;
76723;SDS011;65650;53.126;17.950;2022-12-20T15:09:06;87.10;;;25.40;;
76723;SDS011;65650;53.126;17.950;2022-12-20T15:11:33;123.30;;;30.70;;
76723;SDS011;65650;53.126;17.950;2022-12-20T15:14:00;55.70;;;18.90;;
76723;SDS011;65650;53.126;17.950;2022-12-20T15:16:27;43.60;;;15.80;;
76723;SDS011;65650;53.126;17.950;2022-12-20T15:18:55;63.40;;;21.90;;
76723;SDS011;65650;53.126;17.950;2022-12-20T15:23:52;41.90;;;17.90;;
76723;SDS011;65650;53.126;17.950;2022-12-20T15:26:20;37.60;;;16.10;;
76723;SDS011;65650;53.126;17.950;2022-12-20T15:28:47;40.30;;;16.00;;
76723;SDS011;65650;53.126;17.950;2022-12-20T15:31:15;42.00;;;16.10;;
76723;SDS011;65650;53.126;17.950;2022-12-20T15:33:43;29.80;;;14.30;;
76723;SDS011;65650;53.126;17.950;2022-12-20T15:36:17;35.10;;;14.30;;
76723;SDS011;65650;53.126;17.950;2022-12-20T15:38:44;37.30;;;15.40;;
76723;SDS011;65650;53.126;17.950;2022-12-20T15:41:26;50.30;;;20.30;;
76723;SDS011;65650;53.126;17.950;2022-12-20T15:43:54;47.50;;;20.60;;
76723;SDS011;65650;53.126;17.950;2022-12-20T15:46:21;28.50;;;11.80;;
76723;SDS011;65650;53.126;17.950;2022-12-20T15:48:48;41.50;;;17.10;;
76723;SDS011;65650;53.126;17.950;2022-12-20T15:51:22;38.20;;;14.40;;
76723;SDS011;65650;53.126;17.950;2022-12-20T15:53:49;30.60;;;13.20;;
76723;SDS011;65650;53.126;17.950;2022-12-20T15:56:17;39.50;;;15.60;;
76723;SDS011;65650;53.126;17.950;2022-12-20T15:58:44;38.70;;;17.40;;
76723;SDS011;65650;53.126;17.950;2022-12-20T16:01:13;42.90;;;17.00;;
76723;SDS011;65650;53.126;17.950;2022-12-20T16:03:41;39.90;;;17.20;;
76723;SDS011;65650;53.126;17.950;2022-12-20T16:06:09;63.70;;;23.60;;
76723;SDS011;65650;53.126;17.950;2022-12-20T16:08:36;44.90;;;18.60;;
76723;SDS011;65650;53.126;17.950;2022-12-20T16:11:03;72.30;;;27.80;;
76723;SDS011;65650;53.126;17.950;2022-12-20T16:13:30;82.20;;;28.60;;
76723;SDS011;65650;53.126;17.950;2022-12-20T16:15:57;65.50;;;26.10;;
76723;SDS011;65650;53.126;17.950;2022-12-20T16:18:25;55.40;;;23.70;;